Weather at Greater Rochester International Airport

Public forecast

Using degrees Fahrenheit for public forecast. Weather courtesy of forecast.io.

Current aviation weather report (METAR) for Greater Rochester International Airport

Retrieved 2021/07/29 03:54 UTC (39 minutes ago):

KROC 290354Z 00000KT 10SM R04/2200VP6000FT CLR 17/12 A3003 RMK AO2 SLP170 T01670122

Aviation forecast (TAF) for Greater Rochester International Airport

Retrieved 2021-07-29 00:22 UTC (4 hours ago):

TAF KROC 282320Z 2900/2924 06005KT P6SM FEW250 FM290200 12004KT P6SM FEW250 FM290600 17004KT P6SM SCT250 FM291900 16005KT P6SM OVC040 FM292100 19005KT P6SM BKN025